createdAt,value
2018-09-08T00:01:17.202Z,4.20
2018-09-08T00:03:45.331Z,3.97
2018-09-08T00:06:13.231Z,3.23
2018-09-08T00:08:41.237Z,3.40
2018-09-08T00:11:08.854Z,3.73
2018-09-08T00:13:36.741Z,3.60
2018-09-08T00:16:09.671Z,3.43
2018-09-08T00:18:42.911Z,4.00
2018-09-08T00:21:16.193Z,3.60
2018-09-08T00:23:49.254Z,3.83
2018-09-08T00:26:22.163Z,3.47
2018-09-08T00:28:57.435Z,3.80
2018-09-08T00:31:25.339Z,3.70
2018-09-08T00:33:54.166Z,3.63
2018-09-08T00:36:22.767Z,4.10
2018-09-08T00:38:50.359Z,3.30
2018-09-08T00:41:18.347Z,3.40
2018-09-08T00:43:45.941Z,4.10
2018-09-08T00:46:13.806Z,3.93
2018-09-08T00:48:41.721Z,4.13
2018-09-08T00:51:09.677Z,3.50
2018-09-08T00:53:37.256Z,4.07
2018-09-08T00:56:04.816Z,3.97
2018-09-08T00:58:32.595Z,4.10
2018-09-08T01:01:00.633Z,4.00
2018-09-08T01:03:28.985Z,4.83
2018-09-08T01:05:56.546Z,4.37
2018-09-08T01:08:24.238Z,4.30
2018-09-08T01:10:52.249Z,4.40
2018-09-08T01:13:21.014Z,4.50
2018-09-08T01:15:48.777Z,5.07
2018-09-08T01:18:16.770Z,4.60
2018-09-08T01:20:44.793Z,4.67
2018-09-08T01:23:14.173Z,4.50
2018-09-08T01:25:42.857Z,4.50
2018-09-08T01:28:12.333Z,4.10
2018-09-08T01:30:40.487Z,4.47
2018-09-08T01:33:08.279Z,4.97
2018-09-08T01:35:36.915Z,5.23
2018-09-08T01:38:05.789Z,4.47
2018-09-08T01:40:34.696Z,4.90
2018-09-08T01:43:03.581Z,4.00
2018-09-08T01:45:31.538Z,4.47
2018-09-08T01:47:59.405Z,4.23
2018-09-08T01:50:27.376Z,4.43
2018-09-08T01:52:54.921Z,4.00
2018-09-08T01:55:22.448Z,4.37
2018-09-08T01:57:50.798Z,4.43
2018-09-08T02:00:18.611Z,4.33
2018-09-08T02:02:46.418Z,4.63
2018-09-08T02:05:14.778Z,4.43
2018-09-08T02:07:42.401Z,4.60
2018-09-08T02:10:10.379Z,3.93
2018-09-08T02:12:39.258Z,3.83
2018-09-08T02:15:07.534Z,4.20
2018-09-08T02:17:35.505Z,4.93
2018-09-08T02:20:03.515Z,3.77
2018-09-08T02:22:31.364Z,4.00
2018-09-08T02:24:59.353Z,3.80
2018-09-08T02:27:27.412Z,4.17
2018-09-08T02:29:55.259Z,4.17
2018-09-08T02:32:23.377Z,3.97
2018-09-08T02:34:51.425Z,4.40
2018-09-08T02:37:19.163Z,3.60
2018-09-08T02:39:46.950Z,3.37
2018-09-08T02:42:14.897Z,3.20
2018-09-08T02:44:43.235Z,3.60
2018-09-08T02:47:11.958Z,3.93
2018-09-08T02:49:45.802Z,4.43
2018-09-08T02:52:13.020Z,4.33
2018-09-08T02:54:40.049Z,3.80
2018-09-08T02:57:07.560Z,3.67
2018-09-08T02:59:34.774Z,3.87
2018-09-08T03:02:03.016Z,3.80
2018-09-08T03:04:30.455Z,4.50
2018-09-08T03:06:57.481Z,4.13
2018-09-08T03:09:25.031Z,3.87
2018-09-08T03:11:51.966Z,3.30
2018-09-08T03:14:18.913Z,3.87
2018-09-08T03:16:45.987Z,4.07
2018-09-08T03:19:13.001Z,4.13
2018-09-08T03:21:39.922Z,4.23
2018-09-08T03:24:07.170Z,4.20
2018-09-08T03:26:34.183Z,4.80
2018-09-08T03:29:01.262Z,4.57
2018-09-08T03:31:28.462Z,3.83
2018-09-08T03:33:55.648Z,4.17
2018-09-08T03:36:22.749Z,4.13
2018-09-08T03:38:49.654Z,4.80
2018-09-08T03:41:17.160Z,4.50
2018-09-08T03:43:44.830Z,4.20
2018-09-08T03:46:12.407Z,4.00
2018-09-08T03:48:40.047Z,4.60
2018-09-08T03:51:07.205Z,4.63
2018-09-08T03:53:34.743Z,4.57
2018-09-08T03:56:02.510Z,3.90
2018-09-08T03:58:29.587Z,4.70
2018-09-08T04:00:56.840Z,4.43
2018-09-08T04:03:26.451Z,5.10
2018-09-08T04:05:55.814Z,4.30
2018-09-08T04:08:24.070Z,4.60
2018-09-08T04:10:52.554Z,5.27
2018-09-08T04:13:20.475Z,4.87
2018-09-08T04:15:48.392Z,5.63
2018-09-08T04:18:16.365Z,6.40
2018-09-08T04:20:44.471Z,5.60
2018-09-08T04:23:12.264Z,4.47
2018-09-08T04:25:40.086Z,5.10
2018-09-08T04:28:07.999Z,5.63
2018-09-08T04:30:36.029Z,5.90
2018-09-08T04:33:03.909Z,5.60
2018-09-08T04:35:32.886Z,5.80
2018-09-08T04:38:00.771Z,6.30
2018-09-08T04:40:28.730Z,4.40
2018-09-08T04:42:57.935Z,5.40
2018-09-08T04:45:26.327Z,5.73
2018-09-08T04:47:54.926Z,2.83
2018-09-08T04:50:22.766Z,5.33
2018-09-08T04:52:50.759Z,5.30
2018-09-08T04:55:19.292Z,5.40
2018-09-08T04:57:47.309Z,5.70
2018-09-08T05:00:15.086Z,5.33
2018-09-08T05:02:42.948Z,5.77
2018-09-08T05:05:11.745Z,6.83
2018-09-08T05:07:40.535Z,6.10
2018-09-08T05:10:08.841Z,5.90
2018-09-08T05:12:37.454Z,7.07
2018-09-08T05:15:05.290Z,6.73
2018-09-08T05:17:34.122Z,6.53
2018-09-08T05:20:01.912Z,5.50
2018-09-08T05:22:31.384Z,5.03
2018-09-08T05:24:59.395Z,5.50
2018-09-08T05:27:27.461Z,5.60
2018-09-08T05:29:56.121Z,5.30
2018-09-08T05:32:24.063Z,4.60
2018-09-08T05:34:53.296Z,4.70
2018-09-08T05:37:21.013Z,4.17
2018-09-08T05:39:50.352Z,5.47
2018-09-08T05:42:18.925Z,4.80
2018-09-08T05:44:47.149Z,4.70
2018-09-08T05:47:15.190Z,4.63
2018-09-08T05:49:43.590Z,4.80
2018-09-08T05:52:11.426Z,4.50
2018-09-08T05:54:40.000Z,4.90
2018-09-08T05:57:08.594Z,5.60
2018-09-08T05:59:37.211Z,4.40
2018-09-08T06:02:05.170Z,3.70
2018-09-08T06:04:33.555Z,4.27
2018-09-08T06:07:05.187Z,3.87
2018-09-08T06:09:33.982Z,4.13
2018-09-08T06:12:01.953Z,4.20
2018-09-08T06:14:31.654Z,4.00
2018-09-08T06:16:59.550Z,4.57
2018-09-08T06:19:27.461Z,3.93
2018-09-08T06:21:56.885Z,4.20
2018-09-08T06:24:27.065Z,4.30
2018-09-08T06:26:54.906Z,4.67
2018-09-08T06:29:22.988Z,4.73
2018-09-08T06:31:51.844Z,4.20
2018-09-08T06:34:20.327Z,4.57
2018-09-08T06:36:48.225Z,3.70
2018-09-08T06:39:16.261Z,4.33
2018-09-08T06:41:44.463Z,3.93
2018-09-08T06:44:12.187Z,4.20
2018-09-08T06:46:40.908Z,4.43
2018-09-08T06:49:08.925Z,4.83
2018-09-08T06:51:37.361Z,5.17
2018-09-08T06:54:05.326Z,2.70
2018-09-08T06:56:33.467Z,4.87
2018-09-08T06:59:02.127Z,5.07
2018-09-08T07:01:31.230Z,5.13
2018-09-08T07:03:59.817Z,5.40
2018-09-08T07:06:27.743Z,4.60
2018-09-08T07:08:56.674Z,5.27
2018-09-08T07:11:24.491Z,4.73
2018-09-08T07:13:52.273Z,4.70
2018-09-08T07:16:20.090Z,5.10
2018-09-08T07:18:47.858Z,4.60
2018-09-08T07:21:15.458Z,4.00
2018-09-08T07:23:43.036Z,5.43
2018-09-08T07:26:10.611Z,5.53
2018-09-08T07:28:38.178Z,4.77
2018-09-08T07:31:06.106Z,6.90
2018-09-08T07:33:33.852Z,4.60
2018-09-08T07:36:01.418Z,3.97
2018-09-08T07:38:29.054Z,3.73
2018-09-08T07:40:56.719Z,3.73
2018-09-08T07:43:24.624Z,4.40
2018-09-08T07:45:52.524Z,4.17
2018-09-08T07:48:21.174Z,3.83
2018-09-08T07:50:50.732Z,5.03
2018-09-08T07:53:18.749Z,4.97
2018-09-08T07:55:47.586Z,4.00
2018-09-08T07:58:16.184Z,4.90
2018-09-08T08:00:44.123Z,4.80
2018-09-08T08:03:12.140Z,3.80
2018-09-08T08:05:40.095Z,4.67
2018-09-08T08:08:08.061Z,4.67
2018-09-08T08:10:35.906Z,4.10
2018-09-08T08:13:05.672Z,3.67
2018-09-08T08:15:33.401Z,4.40
2018-09-08T08:18:02.273Z,4.23
2018-09-08T08:20:30.932Z,4.67
2018-09-08T08:22:59.930Z,4.70
2018-09-08T08:25:27.694Z,4.17
2018-09-08T08:27:55.856Z,4.73
2018-09-08T08:30:23.726Z,4.80
2018-09-08T08:32:51.693Z,4.30
2018-09-08T08:35:20.072Z,3.60
2018-09-08T08:37:47.910Z,3.27
2018-09-08T08:40:15.670Z,3.10
2018-09-08T08:42:43.643Z,3.40
2018-09-08T08:45:12.288Z,4.30
2018-09-08T08:47:41.442Z,4.53
2018-09-08T08:50:14.450Z,3.93
2018-09-08T08:52:47.523Z,3.73
2018-09-08T08:55:14.961Z,4.00
2018-09-08T08:57:42.558Z,4.00
2018-09-08T09:00:10.177Z,3.60
2018-09-08T09:02:37.805Z,5.20
2018-09-08T09:05:06.450Z,4.63
2018-09-08T09:07:34.735Z,4.40
2018-09-08T09:10:03.063Z,4.37
2018-09-08T09:12:31.050Z,4.63
2018-09-08T09:14:58.902Z,4.50
2018-09-08T09:17:26.460Z,4.50
2018-09-08T09:19:59.514Z,5.03
2018-09-08T09:22:32.518Z,5.00
2018-09-08T09:25:02.287Z,5.30
2018-09-08T09:27:31.097Z,5.53
2018-09-08T09:29:59.062Z,4.37
2018-09-08T09:32:26.748Z,4.80
2018-09-08T09:34:54.343Z,4.70
2018-09-08T09:37:22.056Z,4.20
2018-09-08T09:39:50.205Z,3.80
2018-09-08T09:42:17.795Z,5.10
2018-09-08T09:44:45.421Z,4.17
2018-09-08T09:47:13.082Z,4.63
2018-09-08T09:49:40.783Z,4.70
2018-09-08T09:52:08.398Z,5.03
2018-09-08T09:54:36.146Z,4.73
2018-09-08T09:57:03.790Z,5.37
2018-09-08T09:59:31.398Z,4.50
2018-09-08T10:03:06.904Z,5.03
2018-09-08T10:05:35.140Z,4.40
2018-09-08T10:08:02.739Z,4.07
2018-09-08T10:10:30.434Z,3.87
2018-09-08T10:12:58.099Z,4.37
2018-09-08T10:15:25.719Z,4.23
2018-09-08T10:17:53.569Z,4.30
2018-09-08T10:20:22.424Z,5.67
2018-09-08T10:22:50.469Z,4.17
2018-09-08T10:25:19.369Z,4.23
2018-09-08T10:27:47.798Z,4.17
2018-09-08T10:30:15.981Z,3.93
2018-09-08T10:32:44.487Z,3.43
2018-09-08T10:35:12.351Z,4.07
2018-09-08T10:37:39.956Z,4.70
2018-09-08T10:40:08.159Z,3.83
2018-09-08T10:42:35.806Z,3.77
2018-09-08T10:45:03.432Z,4.27
2018-09-08T10:47:31.037Z,3.20
2018-09-08T10:49:58.629Z,2.73
2018-09-08T10:52:32.888Z,3.30
2018-09-08T10:55:00.529Z,3.80
2018-09-08T10:57:28.082Z,4.93
2018-09-08T10:59:55.726Z,3.20
2018-09-08T11:02:23.746Z,2.33
2018-09-08T11:04:51.213Z,2.20
2018-09-08T11:07:18.846Z,1.80
2018-09-08T11:09:46.426Z,2.07
2018-09-08T11:12:13.965Z,3.10
2018-09-08T11:14:41.517Z,0.93
2018-09-08T11:17:09.060Z,1.80
2018-09-08T11:19:36.633Z,1.83
2018-09-08T11:22:04.170Z,2.03
2018-09-08T11:24:32.123Z,1.70
2018-09-08T11:26:59.717Z,1.80
2018-09-08T11:29:27.343Z,1.60
2018-09-08T11:31:55.269Z,2.27
2018-09-08T11:34:23.178Z,2.20
2018-09-08T11:36:52.147Z,2.13
2018-09-08T11:39:19.842Z,2.07
2018-09-08T11:41:47.444Z,2.03
2018-09-08T11:44:15.030Z,3.70
2018-09-08T11:46:42.669Z,1.60
2018-09-08T11:49:10.249Z,1.60
2018-09-08T11:51:37.887Z,1.77
2018-09-08T11:54:05.768Z,1.90
2018-09-08T11:56:33.353Z,1.80
2018-09-08T11:59:01.198Z,1.20
2018-09-08T12:01:28.823Z,1.50
2018-09-08T12:03:56.634Z,1.70
2018-09-08T12:06:24.342Z,1.57
2018-09-08T12:08:51.919Z,2.23
2018-09-08T12:11:19.494Z,2.47
2018-09-08T12:13:47.126Z,0.97
2018-09-08T12:16:14.821Z,2.10
2018-09-08T12:18:42.433Z,1.70
2018-09-08T12:23:44.086Z,1.87
2018-09-08T12:26:11.734Z,1.70
2018-09-08T12:28:39.684Z,2.10
2018-09-08T12:31:07.286Z,2.20
2018-09-08T12:33:34.920Z,1.90
2018-09-08T12:36:02.849Z,1.50
2018-09-08T12:38:30.524Z,1.70
2018-09-08T12:40:58.090Z,1.53
2018-09-08T12:43:25.817Z,1.93
2018-09-08T12:45:53.458Z,1.53
2018-09-08T12:48:21.248Z,1.90
2018-09-08T12:50:48.853Z,1.13
2018-09-08T12:53:16.545Z,1.60
2018-09-08T12:55:44.192Z,1.83
2018-09-08T12:58:11.827Z,2.07
2018-09-08T13:00:39.390Z,3.03
2018-09-08T13:03:07.213Z,1.93
2018-09-08T13:05:34.791Z,2.17
2018-09-08T13:08:02.464Z,2.10
2018-09-08T13:10:30.050Z,2.33
2018-09-08T13:12:57.635Z,2.10
2018-09-08T13:15:25.396Z,2.57
2018-09-08T13:17:53.263Z,2.90
2018-09-08T13:20:20.873Z,2.03
2018-09-08T13:22:48.459Z,2.10
2018-09-08T13:25:16.074Z,2.13
2018-09-08T13:27:43.650Z,1.30
2018-09-08T13:30:11.213Z,2.17
2018-09-08T13:32:38.783Z,2.00
2018-09-08T13:35:06.411Z,2.90
2018-09-08T13:37:34.022Z,2.57
2018-09-08T13:40:01.680Z,2.43
2018-09-08T13:42:29.223Z,2.50
2018-09-08T13:44:56.986Z,2.43
2018-09-08T13:47:24.686Z,2.80
2018-09-08T13:49:52.616Z,2.60
2018-09-08T13:52:20.179Z,3.77
2018-09-08T13:54:47.802Z,2.20
2018-09-08T13:57:15.426Z,2.60
2018-09-08T13:59:43.005Z,2.43
2018-09-08T14:02:10.615Z,2.20
2018-09-08T14:04:38.250Z,2.47
2018-09-08T14:07:06.386Z,2.30
2018-09-08T14:09:35.197Z,2.90
2018-09-08T14:12:03.425Z,2.37
2018-09-08T14:14:32.715Z,2.33
2018-09-08T14:17:01.751Z,2.23
2018-09-08T14:19:31.654Z,2.10
2018-09-08T14:21:59.509Z,2.27
2018-09-08T14:24:27.158Z,2.10
2018-09-08T14:26:54.708Z,1.70
2018-09-08T14:29:24.008Z,2.20
2018-09-08T14:31:52.314Z,1.47
2018-09-08T14:34:19.884Z,2.33
2018-09-08T14:36:47.576Z,1.50
2018-09-08T14:39:15.139Z,2.10
2018-09-08T14:41:42.702Z,1.50
2018-09-08T14:44:10.346Z,1.80
2018-09-08T14:46:37.880Z,2.00
2018-09-08T14:49:06.593Z,1.80
2018-09-08T14:51:34.396Z,1.90
2018-09-08T14:54:02.202Z,1.77
2018-09-08T14:56:29.771Z,2.20
2018-09-08T14:58:57.321Z,2.67
2018-09-08T15:01:24.831Z,3.20
2018-09-08T15:03:52.383Z,2.33
2018-09-08T15:06:19.942Z,1.90
2018-09-08T15:08:47.506Z,1.83
2018-09-08T15:11:15.067Z,1.70
2018-09-08T15:13:42.653Z,2.27
2018-09-08T15:16:10.238Z,2.50
2018-09-08T15:18:39.151Z,2.00
2018-09-08T15:21:07.241Z,2.40
2018-09-08T15:23:34.840Z,3.13
2018-09-08T15:26:02.499Z,2.90
2018-09-08T15:28:30.087Z,1.80
2018-09-08T15:30:57.614Z,2.10
2018-09-08T15:33:25.245Z,2.50
2018-09-08T15:35:53.013Z,2.07
2018-09-08T15:38:20.715Z,2.33
2018-09-08T15:40:48.309Z,2.40
2018-09-08T15:43:16.367Z,2.20
2018-09-08T15:45:44.345Z,2.93
2018-09-08T15:48:12.433Z,3.60
2018-09-08T15:50:40.377Z,3.20
2018-09-08T15:53:08.241Z,3.10
2018-09-08T15:55:36.043Z,2.70
2018-09-08T15:58:03.610Z,2.40
2018-09-08T16:00:31.274Z,2.93
2018-09-08T16:02:58.840Z,2.47
2018-09-08T16:05:26.659Z,2.03
2018-09-08T16:07:54.319Z,2.60
2018-09-08T16:10:22.051Z,2.30
2018-09-08T16:12:49.656Z,2.20
2018-09-08T16:15:17.282Z,2.47
2018-09-08T16:17:44.887Z,2.77
2018-09-08T16:20:12.440Z,2.70
2018-09-08T16:22:40.252Z,2.17
2018-09-08T16:25:07.850Z,2.50
2018-09-08T16:27:35.429Z,2.33
2018-09-08T16:30:03.292Z,2.83
2018-09-08T16:32:30.905Z,2.27
2018-09-08T16:34:58.504Z,2.40
2018-09-08T16:37:26.067Z,2.90
2018-09-08T16:39:53.641Z,2.27
2018-09-08T16:42:21.230Z,2.60
2018-09-08T16:44:48.853Z,2.83
2018-09-08T16:47:16.678Z,3.20
2018-09-08T16:49:44.304Z,2.97
2018-09-08T16:52:11.943Z,2.80
2018-09-08T16:54:39.490Z,2.90
2018-09-08T16:57:07.153Z,2.77
2018-09-08T16:59:34.727Z,2.97
2018-09-08T17:02:02.294Z,2.33
2018-09-08T17:04:29.956Z,4.37
2018-09-08T17:06:57.749Z,2.93
2018-09-08T17:09:25.774Z,2.43
2018-09-08T17:11:54.045Z,2.50
2018-09-08T17:14:22.791Z,2.87
2018-09-08T17:16:51.426Z,2.50
2018-09-08T17:19:19.394Z,2.93
2018-09-08T17:21:47.471Z,2.30
2018-09-08T17:24:15.975Z,2.70
2018-09-08T17:26:44.302Z,3.17
2018-09-08T17:29:12.195Z,2.80
2018-09-08T17:31:42.177Z,2.53
2018-09-08T17:34:10.126Z,2.93
2018-09-08T17:36:37.915Z,2.33
2018-09-08T17:39:07.172Z,3.47
2018-09-08T17:41:35.905Z,3.30
2018-09-08T17:44:04.683Z,2.73
2018-09-08T17:46:32.451Z,3.13
2018-09-08T17:49:00.719Z,2.77
2018-09-08T17:51:28.290Z,3.07
2018-09-08T17:53:56.000Z,3.00
2018-09-08T17:56:23.550Z,3.50
2018-09-08T17:58:51.106Z,3.43
2018-09-08T18:01:20.223Z,3.40
2018-09-08T18:03:49.281Z,3.40
2018-09-08T18:06:16.983Z,4.10
2018-09-08T18:08:44.753Z,2.80
2018-09-08T18:11:12.798Z,3.33
2018-09-08T18:13:41.327Z,3.87
2018-09-08T18:16:10.282Z,3.97
2018-09-08T18:18:39.069Z,3.60
2018-09-08T18:21:06.807Z,3.60
2018-09-08T18:23:34.722Z,4.27
2018-09-08T18:26:03.364Z,3.83
2018-09-08T18:28:32.294Z,4.10
2018-09-08T18:31:00.144Z,4.10
2018-09-08T18:33:27.899Z,3.80
2018-09-08T18:35:56.659Z,4.30
2018-09-08T18:38:24.428Z,4.23
2018-09-08T18:40:52.296Z,4.63
2018-09-08T18:43:20.170Z,3.90
2018-09-08T18:45:47.999Z,4.90
2018-09-08T18:48:15.961Z,4.30
2018-09-08T18:50:43.757Z,3.63
2018-09-08T18:53:12.307Z,4.33
2018-09-08T18:55:40.340Z,4.03
2018-09-08T18:58:08.495Z,4.30
2018-09-08T19:00:36.407Z,4.20
2018-09-08T19:03:04.837Z,4.07
2018-09-08T19:05:33.329Z,3.93
2018-09-08T19:08:01.672Z,4.23
2018-09-08T19:10:33.120Z,4.23
2018-09-08T19:13:01.245Z,3.87
2018-09-08T19:15:29.278Z,4.37
2018-09-08T19:17:57.913Z,4.00
2018-09-08T19:20:31.158Z,5.30
2018-09-08T19:22:59.117Z,4.73
2018-09-08T19:25:27.319Z,4.40
2018-09-08T19:27:55.253Z,4.30
2018-09-08T19:30:24.129Z,4.10
2018-09-08T19:32:52.503Z,4.73
2018-09-08T19:35:25.649Z,4.20
2018-09-08T19:37:54.952Z,4.83
2018-09-08T19:40:27.965Z,4.20
2018-09-08T19:42:55.714Z,3.87
2018-09-08T19:45:24.478Z,4.97
2018-09-08T19:47:57.879Z,4.50
2018-09-08T19:50:25.725Z,5.27
2018-09-08T19:53:59.220Z,5.30
2018-09-08T19:56:32.176Z,4.73
2018-09-08T19:59:00.452Z,5.20
2018-09-08T20:01:28.860Z,4.87
2018-09-08T20:03:56.927Z,6.20
2018-09-08T20:06:24.917Z,5.70
2018-09-08T20:08:53.233Z,5.00
2018-09-08T20:11:21.166Z,5.50
2018-09-08T20:13:49.412Z,5.50
2018-09-08T20:16:17.282Z,5.40
2018-09-08T20:18:45.741Z,5.30
2018-09-08T20:21:14.260Z,4.83
2018-09-08T20:23:41.908Z,5.33
2018-09-08T20:26:10.230Z,5.03
2018-09-08T20:28:38.203Z,5.47
2018-09-08T20:31:06.186Z,5.83
2018-09-08T20:33:34.690Z,5.27
2018-09-08T20:36:03.475Z,5.40
2018-09-08T20:38:31.626Z,5.03
2018-09-08T20:41:00.242Z,5.77
2018-09-08T20:43:28.210Z,5.60
2018-09-08T20:45:56.090Z,5.40
2018-09-08T20:48:23.864Z,5.30
2018-09-08T20:50:51.671Z,5.80
2018-09-08T20:53:19.461Z,5.20
2018-09-08T20:55:47.459Z,6.23
2018-09-08T20:58:16.565Z,5.10
2018-09-08T21:00:44.952Z,4.97
2018-09-08T21:03:12.922Z,5.07
2018-09-08T21:05:40.854Z,5.23
2018-09-08T21:08:08.901Z,4.87
2018-09-08T21:10:36.818Z,5.40
2018-09-08T21:13:05.356Z,5.80
2018-09-08T21:15:33.413Z,4.93
2018-09-08T21:18:01.391Z,5.07
2018-09-08T21:20:29.493Z,4.97
2018-09-08T21:22:58.528Z,5.57
2018-09-08T21:25:26.644Z,4.90
2018-09-08T21:27:54.598Z,5.17
2018-09-08T21:30:22.609Z,4.93
2018-09-08T21:32:51.083Z,5.00
2018-09-08T21:35:18.964Z,4.70
2018-09-08T21:37:46.685Z,5.10
2018-09-08T21:40:15.353Z,5.07
2018-09-08T21:42:43.966Z,4.70
2018-09-08T21:45:11.842Z,5.20
2018-09-08T21:47:40.223Z,5.23
2018-09-08T21:50:08.137Z,5.00
2018-09-08T21:52:36.719Z,5.20
2018-09-08T21:55:04.813Z,4.50
2018-09-08T21:57:33.338Z,4.57
2018-09-08T22:00:01.214Z,4.80
2018-09-08T22:02:28.895Z,5.10
2018-09-08T22:04:57.921Z,5.10
2018-09-08T22:07:25.793Z,4.60
2018-09-08T22:09:53.823Z,5.43
2018-09-08T22:12:21.817Z,5.20
2018-09-08T22:14:51.039Z,5.00
2018-09-08T22:17:19.647Z,4.70
2018-09-08T22:19:47.922Z,4.67
2018-09-08T22:22:16.705Z,5.13
2018-09-08T22:24:44.682Z,5.03
2018-09-08T22:27:12.629Z,4.90
2018-09-08T22:29:40.461Z,5.83
2018-09-08T22:32:08.251Z,6.10
2018-09-08T22:34:37.285Z,5.10
2018-09-08T22:37:05.171Z,4.77
2018-09-08T22:39:34.576Z,5.60
2018-09-08T22:42:02.411Z,5.30
2018-09-08T22:44:30.338Z,5.10
2018-09-08T22:46:58.830Z,5.07
2018-09-08T22:49:26.490Z,4.33
2018-09-08T22:51:55.243Z,4.80
2018-09-08T22:54:23.087Z,5.47
2018-09-08T22:56:51.563Z,4.20
2018-09-08T22:59:19.662Z,4.73
2018-09-08T23:01:47.753Z,5.10
2018-09-08T23:04:15.768Z,5.30
2018-09-08T23:06:44.879Z,5.47
2018-09-08T23:09:13.222Z,4.93
2018-09-08T23:11:42.293Z,5.60
2018-09-08T23:14:10.116Z,5.00
2018-09-08T23:16:39.517Z,5.60
2018-09-08T23:19:07.623Z,5.53
2018-09-08T23:21:35.398Z,4.60
2018-09-08T23:24:04.520Z,5.20
2018-09-08T23:26:32.412Z,5.17
2018-09-08T23:29:00.415Z,5.40
2018-09-08T23:31:28.259Z,5.03
2018-09-08T23:33:56.350Z,5.20
2018-09-08T23:36:24.314Z,5.13
2018-09-08T23:38:52.821Z,5.60
2018-09-08T23:41:20.846Z,5.80
2018-09-08T23:43:48.538Z,5.40
2018-09-08T23:46:16.395Z,6.10
2018-09-08T23:48:44.495Z,5.57
2018-09-08T23:51:12.386Z,5.63
2018-09-08T23:53:41.774Z,5.27
2018-09-08T23:56:09.645Z,5.10
2018-09-08T23:58:38.285Z,5.33
